Time;durP1;ratioP1;P1;durP2;ratioP2;P2;SDS_P1;SDS_P2;PMS_P1;PMS_P2;Temp;Humidity;BMP_temperature;BMP_pressure;BME280_temperature;BME280_humidity;BME280_pressure;Samples;Min_cycle;Max_cycle;Signal;HPM_P1;HPM_P2
2023/03/28 00:00:49;;;;;;;12.35;1.88;;;4.80;99.90;;;;;;5138344;27;20039;-69
2023/03/28 00:03:17;;;;;;;12.07;1.58;;;4.90;99.90;;;;;;5138309;27;20046;-69
2023/03/28 00:05:47;;;;;;;16.05;1.50;;;4.90;99.90;;;;;;5138258;27;20047;-69
2023/03/28 00:08:14;;;;;;;12.32;1.30;;;4.90;99.90;;;;;;5137914;27;20313;-69
2023/03/28 00:10:41;;;;;;;11.43;1.27;;;5.10;99.90;;;;;;5137958;27;20431;-69
2023/03/28 00:13:07;;;;;;;11.40;1.60;;;5.00;99.90;;;;;;5138210;27;20038;-69
2023/03/28 00:15:34;;;;;;;14.15;1.42;;;4.90;99.90;;;;;;5120062;27;20092;-69
2023/03/28 00:18:00;;;;;;;17.42;1.55;;;4.80;99.90;;;;;;5138144;27;20035;-69
2023/03/28 00:20:28;;;;;;;13.60;1.60;;;4.70;99.90;;;;;;5138074;27;20039;-69
2023/03/28 00:22:54;;;;;;;10.50;1.73;;;4.70;99.90;;;;;;5139624;27;20039;-69
2023/03/28 00:25:20;;;;;;;12.85;1.27;;;4.80;99.90;;;;;;5158405;27;20046;-69
2023/03/28 00:27:46;;;;;;;14.52;1.23;;;4.80;99.90;;;;;;5140360;27;20046;-69
2023/03/28 00:30:11;;;;;;;9.85;1.38;;;4.80;99.90;;;;;;5158722;27;20038;-69
2023/03/28 00:32:37;;;;;;;12.07;1.33;;;4.80;99.90;;;;;;5158346;27;20327;-69
2023/03/28 00:35:03;;;;;;;7.70;1.20;;;4.80;99.90;;;;;;5158554;27;20046;-69
2023/03/28 00:37:30;;;;;;;5.85;1.20;;;4.80;99.90;;;;;;5158577;27;20042;-69
2023/03/28 00:39:56;;;;;;;18.33;1.40;;;4.90;99.90;;;;;;5140219;27;20323;-69
2023/03/28 00:42:23;;;;;;;10.48;1.10;;;5.00;99.90;;;;;;5158572;27;20031;-69
2023/03/28 00:44:55;;;;;;;17.20;1.73;;;5.00;99.90;;;;;;5158418;27;20101;-69
2023/03/28 00:47:35;;;;;;;14.52;1.35;;;4.90;99.90;;;;;;5162096;27;20038;-69
2023/03/28 00:50:07;;;;;;;10.93;1.45;;;4.90;99.90;;;;;;5162861;27;20042;-69
2023/03/28 00:52:56;;;;;;;14.00;1.23;;;4.90;99.90;;;;;;5162395;27;20038;-69
2023/03/28 00:55:27;;;;;;;13.48;1.55;;;4.80;99.90;;;;;;5162256;27;20141;-69
2023/03/28 00:57:53;;;;;;;7.05;0.90;;;4.80;99.90;;;;;;5162658;27;20043;-69
2023/03/28 01:00:19;;;;;;;10.60;1.15;;;4.90;99.90;;;;;;5162606;27;20042;-69
2023/03/28 01:02:51;;;;;;;10.20;1.05;;;5.00;99.90;;;;;;5143908;27;20328;-69
2023/03/28 01:05:23;;;;;;;10.98;1.02;;;5.00;99.90;;;;;;5162887;27;20039;-69
2023/03/28 01:07:56;;;;;;;12.73;1.63;;;4.90;99.90;;;;;;5162547;27;20038;-69
2023/03/28 01:10:23;;;;;;;9.18;1.25;;;4.90;99.90;;;;;;5162280;27;20050;-69
2023/03/28 01:12:50;;;;;;;10.73;1.30;;;4.70;99.90;;;;;;5162410;27;20035;-69
2023/03/28 01:15:16;;;;;;;9.65;1.20;;;4.70;99.90;;;;;;5162258;27;20042;-69
2023/03/28 01:17:45;;;;;;;9.45;1.23;;;4.60;99.90;;;;;;5162294;27;20042;-69
2023/03/28 01:20:34;;;;;;;11.75;1.25;;;4.70;99.90;;;;;;5162320;27;20046;-69
2023/03/28 01:23:40;;;;;;;10.60;1.00;;;4.60;99.90;;;;;;5161886;27;20099;-69
2023/03/28 01:26:20;;;;;;;12.18;1.38;;;4.70;99.90;;;;;;5162181;27;20159;-69
2023/03/28 01:29:01;;;;;;;8.10;0.73;;;4.60;99.90;;;;;;5162137;27;20323;-69
2023/03/28 01:31:51;;;;;;;11.70;1.30;;;4.60;99.90;;;;;;5162039;27;20046;-69
2023/03/28 01:34:35;;;;;;;10.10;1.13;;;4.60;99.90;;;;;;5161945;27;20043;-69
2023/03/28 01:37:33;;;;;;;6.03;1.10;;;4.60;99.90;;;;;;5161652;27;20439;-69
2023/03/28 01:40:05;;;;;;;11.23;0.95;;;4.60;99.90;;;;;;5114090;27;20339;-69
2023/03/28 01:42:45;;;;;;;6.45;1.02;;;4.50;99.90;;;;;;5161448;27;20443;-69
2023/03/28 01:45:18;;;;;;;7.28;0.95;;;4.50;99.90;;;;;;5161808;27;20045;-69
2023/03/28 01:48:12;;;;;;;10.48;1.23;;;4.40;99.90;;;;;;5161738;27;20087;-69
2023/03/28 01:50:57;;;;;;;14.20;2.20;;;4.30;99.90;;;;;;5124056;27;20042;-69
2023/03/28 01:53:26;;;;;;;10.30;0.95;;;4.20;99.90;;;;;;5161201;27;20046;-69
2023/03/28 01:56:21;;;;;;;7.18;1.23;;;4.00;99.90;;;;;;5161141;27;20050;-69
2023/03/28 01:58:50;;;;;;;12.90;1.77;;;4.00;99.90;;;;;;5161572;27;20034;-69
2023/03/28 02:01:35;;;;;;;13.45;1.35;;;4.00;99.90;;;;;;5161157;27;20492;-69
2023/03/28 02:04:07;;;;;;;8.77;1.15;;;3.90;99.90;;;;;;5161404;27;20026;-69
2023/03/28 02:06:37;;;;;;;12.07;0.95;;;4.00;99.90;;;;;;5161425;27;20037;-69
2023/03/28 02:09:05;;;;;;;8.00;1.27;;;4.10;99.90;;;;;;5161125;27;20041;-69
2023/03/28 02:11:32;;;;;;;10.63;1.23;;;4.00;99.90;;;;;;5160968;27;20475;-69
2023/03/28 02:14:09;;;;;;;6.97;1.15;;;4.10;99.90;;;;;;5161148;27;20110;-69
2023/03/28 02:16:40;;;;;;;14.95;1.20;;;4.20;99.90;;;;;;5161172;27;20070;-69
2023/03/28 02:19:07;;;;;;;10.02;1.20;;;4.10;99.90;;;;;;5160878;27;20431;-69
2023/03/28 02:21:51;;;;;;;9.95;1.08;;;4.10;99.90;;;;;;5160843;27;20034;-69
2023/03/28 02:24:16;;;;;;;12.48;1.13;;;4.20;99.90;;;;;;5142318;27;20038;-69
2023/03/28 02:26:43;;;;;;;6.38;1.42;;;4.20;99.90;;;;;;5160941;27;20047;-69
2023/03/28 02:29:09;;;;;;;13.70;1.10;;;4.20;99.90;;;;;;5160929;27;20047;-69
2023/03/28 02:31:37;;;;;;;7.88;0.98;;;4.10;99.90;;;;;;5142612;27;20042;-69
2023/03/28 02:34:03;;;;;;;10.13;1.48;;;4.20;99.90;;;;;;5160752;27;20035;-69
2023/03/28 02:36:58;;;;;;;12.45;1.50;;;4.20;99.90;;;;;;5160784;27;20038;-69
2023/03/28 02:39:49;;;;;;;6.35;0.70;;;4.20;99.90;;;;;;5069221;27;20168;-69
2023/03/28 02:42:58;;;;;;;9.43;1.33;;;4.20;99.90;;;;;;5160653;27;20066;-69
2023/03/28 02:45:53;;;;;;;11.98;1.35;;;4.20;99.90;;;;;;5160640;27;20047;-69
2023/03/28 02:48:41;;;;;;;12.05;1.70;;;4.20;99.90;;;;;;5160539;27;20070;-69
2023/03/28 02:51:12;;;;;;;16.40;1.38;;;4.00;99.90;;;;;;5141862;27;20057;-69
2023/03/28 02:54:03;;;;;;;10.15;1.00;;;3.90;99.90;;;;;;5160033;27;20089;-69
2023/03/28 02:57:09;;;;;;;9.50;1.27;;;3.90;99.90;;;;;;5159936;27;20043;-69
2023/03/28 02:59:57;;;;;;;10.77;1.52;;;3.90;99.90;;;;;;5160649;27;20042;-69
2023/03/28 03:02:23;;;;;;;10.27;1.27;;;4.00;99.90;;;;;;5160324;27;20416;-69
2023/03/28 03:04:49;;;;;;;8.38;0.85;;;3.90;99.90;;;;;;5160191;27;20035;-69
2023/03/28 03:07:18;;;;;;;8.82;1.08;;;3.90;99.90;;;;;;5160144;27;20039;-69
2023/03/28 03:09:45;;;;;;;10.27;1.65;;;3.80;99.90;;;;;;5159213;27;20035;-69
2023/03/28 03:12:11;;;;;;;7.78;1.10;;;3.80;99.90;;;;;;5160014;27;20046;-69
2023/03/28 03:14:37;;;;;;;13.60;1.20;;;3.90;99.90;;;;;;5159638;27;20424;-69
2023/03/28 03:17:04;;;;;;;7.78;1.27;;;3.90;99.90;;;;;;5159929;27;20038;-69
2023/03/28 03:19:31;;;;;;;10.88;1.27;;;4.00;99.90;;;;;;5159947;27;20053;-69
2023/03/28 03:21:58;;;;;;;6.70;0.85;;;4.00;99.90;;;;;;5159849;27;20091;-69
2023/03/28 03:24:24;;;;;;;8.20;1.15;;;3.90;99.90;;;;;;5159398;27;20047;-69
2023/03/28 03:26:50;;;;;;;10.10;1.13;;;3.90;99.90;;;;;;5159760;27;20042;-69
2023/03/28 03:29:16;;;;;;;7.93;1.30;;;3.90;99.90;;;;;;5159709;27;20041;-69
2023/03/28 03:31:41;;;;;;;7.32;2.17;;;3.90;99.90;;;;;;5159683;27;20041;-69
2023/03/28 03:34:07;;;;;;;8.38;1.10;;;3.80;99.90;;;;;;5140906;27;20078;-69
2023/03/28 03:36:33;;;;;;;14.38;1.27;;;3.90;99.90;;;;;;5159558;27;20034;-69
2023/03/28 03:38:59;;;;;;;9.43;1.02;;;3.80;99.90;;;;;;5159518;27;20093;-69
2023/03/28 03:41:25;;;;;;;9.55;1.10;;;3.80;99.90;;;;;;5159480;27;20030;-69
2023/03/28 03:43:50;;;;;;;10.70;1.00;;;3.80;99.90;;;;;;5159062;27;20087;-69
2023/03/28 03:46:16;;;;;;;9.68;1.25;;;3.90;99.90;;;;;;5140851;27;20046;-69
2023/03/28 03:48:42;;;;;;;5.55;0.82;;;3.80;99.90;;;;;;5159345;27;20122;-69
2023/03/28 03:51:08;;;;;;;12.90;1.45;;;3.70;99.90;;;;;;5158952;27;20034;-69
2023/03/28 03:53:34;;;;;;;10.60;1.00;;;3.80;99.90;;;;;;5158592;27;20122;-69
2023/03/28 03:56:01;;;;;;;6.35;0.95;;;3.80;99.90;;;;;;5158794;27;20147;-68
2023/03/28 03:58:27;;;;;;;9.48;1.15;;;3.70;99.90;;;;;;5159184;27;20121;-69
2023/03/28 04:00:54;;;;;;;11.27;1.45;;;3.80;99.90;;;;;;5159084;27;20073;-69
2023/03/28 04:03:20;;;;;;;10.13;1.58;;;3.80;99.90;;;;;;5159110;27;20038;-69
2023/03/28 04:05:46;;;;;;;8.02;1.10;;;3.80;99.90;;;;;;5159030;27;20111;-69
2023/03/28 04:08:11;;;;;;;9.98;1.10;;;3.70;99.90;;;;;;5158989;27;20034;-69
2023/03/28 04:10:37;;;;;;;7.13;1.15;;;3.70;99.90;;;;;;5158655;27;20063;-69
2023/03/28 04:13:03;;;;;;;11.07;1.10;;;3.70;99.90;;;;;;5158630;27;20099;-69
2023/03/28 04:15:28;;;;;;;12.70;1.60;;;3.60;99.90;;;;;;5158545;27;20046;-69
2023/03/28 04:17:55;;;;;;;11.32;0.95;;;3.70;99.90;;;;;;5158834;27;20038;-69
2023/03/28 04:20:22;;;;;;;5.82;1.08;;;3.70;99.90;;;;;;5158672;27;20053;-69
2023/03/28 04:22:49;;;;;;;13.27;1.50;;;3.60;99.90;;;;;;5158073;27;20035;-69
2023/03/28 04:25:16;;;;;;;9.88;1.20;;;3.60;99.90;;;;;;5158730;27;20042;-69
2023/03/28 04:27:47;;;;;;;5.30;0.93;;;3.60;99.90;;;;;;5158688;27;20042;-69
2023/03/28 04:30:16;;;;;;;9.60;1.10;;;3.70;99.90;;;;;;5158442;27;20038;-69
2023/03/28 04:32:42;;;;;;;13.23;1.27;;;3.60;99.90;;;;;;5158641;27;20026;-69
2023/03/28 04:35:10;;;;;;;10.70;1.25;;;3.70;99.90;;;;;;5158608;27;20039;-69
2023/03/28 04:37:36;;;;;;;12.35;1.52;;;3.60;99.90;;;;;;5158660;27;20034;-69
2023/03/28 04:40:09;;;;;;;8.65;1.02;;;3.50;99.90;;;;;;5158541;27;20050;-69
2023/03/28 04:42:36;;;;;;;10.98;1.20;;;3.50;99.90;;;;;;5158588;27;20034;-69
2023/03/28 04:45:03;;;;;;;5.60;0.93;;;3.50;99.90;;;;;;5158537;27;20043;-69
2023/03/28 04:47:29;;;;;;;6.43;0.88;;;3.50;99.90;;;;;;5158178;27;20428;-69
2023/03/28 04:49:55;;;;;;;10.73;1.20;;;3.50;99.90;;;;;;5158477;27;20061;-69
2023/03/28 04:52:21;;;;;;;7.63;1.35;;;3.50;99.90;;;;;;5140096;27;20454;-69
2023/03/28 04:54:46;;;;;;;8.43;1.10;;;3.40;99.90;;;;;;5139248;27;20050;-70
2023/03/28 04:57:12;;;;;;;11.57;1.10;;;3.40;99.90;;;;;;5158142;27;20034;-70
2023/03/28 04:59:38;;;;;;;10.23;1.45;;;3.50;99.90;;;;;;5139861;27;20043;-69
2023/03/28 05:02:03;;;;;;;7.57;1.30;;;3.50;99.90;;;;;;5158352;27;20038;-70
2023/03/28 05:04:29;;;;;;;9.10;1.02;;;3.50;99.90;;;;;;5158043;27;20516;-70
2023/03/28 05:06:56;;;;;;;6.88;1.15;;;3.50;99.90;;;;;;5158337;27;20070;-69
2023/03/28 05:09:22;;;;;;;14.57;1.00;;;3.50;99.90;;;;;;5158020;27;20042;-70
2023/03/28 05:11:48;;;;;;;9.93;1.20;;;3.40;99.90;;;;;;5158272;27;20352;-70
2023/03/28 05:14:14;;;;;;;11.75;1.58;;;3.40;99.90;;;;;;5158175;27;20297;-69
2023/03/28 05:16:40;;;;;;;13.18;1.50;;;3.40;99.90;;;;;;5139745;27;20050;-70
2023/03/28 05:19:06;;;;;;;5.38;0.90;;;3.30;99.90;;;;;;5158194;27;20031;-70
2023/03/28 05:21:32;;;;;;;6.40;1.52;;;3.30;99.90;;;;;;5158143;27;20041;-69
2023/03/28 05:23:57;;;;;;;9.90;1.35;;;3.30;99.90;;;;;;5157716;27;20037;-69
2023/03/28 05:26:23;;;;;;;12.30;1.15;;;3.30;99.90;;;;;;5158140;27;20323;-69
2023/03/28 05:28:50;;;;;;;9.23;1.17;;;3.30;99.90;;;;;;5158131;27;20122;-70
2023/03/28 05:31:16;;;;;;;11.07;1.50;;;3.30;99.90;;;;;;5157972;27;20115;-70
2023/03/28 05:33:42;;;;;;;9.85;1.35;;;3.40;99.90;;;;;;5161980;27;20042;-69
2023/03/28 05:36:08;;;;;;;7.57;1.08;;;3.40;99.90;;;;;;5161896;27;20098;-69
2023/03/28 05:38:34;;;;;;;10.85;1.73;;;3.50;99.90;;;;;;5161948;27;20054;-69
2023/03/28 05:40:59;;;;;;;14.65;1.65;;;3.50;99.90;;;;;;5161877;27;20412;-69
2023/03/28 05:43:25;;;;;;;10.13;1.55;;;3.50;99.90;;;;;;5161847;27;20115;-69
2023/03/28 05:45:51;;;;;;;8.85;1.30;;;3.50;99.90;;;;;;5161638;27;20050;-70
2023/03/28 05:48:17;;;;;;;10.57;1.52;;;3.50;99.90;;;;;;5162292;27;20035;-69
2023/03/28 05:50:46;;;;;;;10.25;1.40;;;3.60;99.90;;;;;;5161730;27;20107;-69
2023/03/28 05:53:12;;;;;;;10.30;1.25;;;3.70;99.90;;;;;;5161241;27;20058;-70
2023/03/28 05:55:37;;;;;;;8.88;1.20;;;3.80;99.90;;;;;;5161137;27;20427;-69
2023/03/28 05:58:05;;;;;;;11.77;1.85;;;3.80;99.90;;;;;;5161272;27;20046;-69
2023/03/28 06:00:31;;;;;;;8.20;1.42;;;3.90;99.90;;;;;;5161499;27;20038;-69
2023/03/28 06:02:57;;;;;;;8.18;1.17;;;3.90;99.90;;;;;;5161475;27;20049;-69
2023/03/28 06:05:24;;;;;;;7.95;1.27;;;4.10;99.90;;;;;;5143017;27;20301;-69
2023/03/28 06:07:50;;;;;;;10.40;1.35;;;4.20;99.90;;;;;;5161007;27;20039;-70
2023/03/28 06:10:16;;;;;;;10.02;1.55;;;4.30;99.90;;;;;;5143135;27;20050;-69
2023/03/28 06:12:41;;;;;;;8.63;1.10;;;4.50;99.90;;;;;;5143012;27;20039;-70
2023/03/28 06:15:08;;;;;;;10.23;1.20;;;4.60;99.90;;;;;;5160827;27;20363;-70
2023/03/28 06:17:34;;;;;;;10.40;1.40;;;4.70;99.90;;;;;;5161185;27;20042;-69
2023/03/28 06:20:00;;;;;;;13.07;1.73;;;4.70;99.90;;;;;;5161136;27;20320;-69
2023/03/28 06:22:25;;;;;;;10.75;1.70;;;4.80;99.90;;;;;;5161057;27;20058;-69
2023/03/28 06:24:52;;;;;;;8.45;1.45;;;4.90;99.90;;;;;;5160633;27;20059;-69
2023/03/28 06:27:17;;;;;;;16.38;2.15;;;5.00;99.90;;;;;;5160988;27;20308;-69
2023/03/28 06:29:43;;;;;;;11.65;3.38;;;4.90;99.90;;;;;;5160841;27;20116;-69
2023/03/28 06:32:09;;;;;;;15.95;2.78;;;4.70;99.90;;;;;;5160909;27;20074;-69
2023/03/28 06:34:34;;;;;;;16.00;3.53;;;4.80;99.90;;;;;;5160413;27;20503;-69
2023/03/28 06:37:00;;;;;;;10.40;2.40;;;4.90;99.90;;;;;;5160807;27;20038;-69
2023/03/28 06:39:27;;;;;;;15.63;2.33;;;5.00;99.90;;;;;;5160749;27;20118;-69
2023/03/28 06:41:53;;;;;;;10.68;1.80;;;5.10;99.90;;;;;;5160713;27;20038;-69
2023/03/28 06:44:18;;;;;;;9.18;1.67;;;5.20;99.90;;;;;;5159012;27;20381;-70
2023/03/28 06:46:44;;;;;;;15.93;2.25;;;5.30;99.90;;;;;;5142015;27;20038;-69
2023/03/28 06:49:10;;;;;;;17.85;2.08;;;5.30;99.90;;;;;;5160237;27;20039;-69
2023/03/28 06:51:35;;;;;;;14.23;2.53;;;5.60;99.90;;;;;;5160501;27;20038;-69
2023/03/28 06:54:01;;;;;;;9.18;1.95;;;5.40;99.90;;;;;;5159720;27;20077;-69
2023/03/28 06:56:27;;;;;;;8.82;1.80;;;5.50;99.90;;;;;;5141657;27;20082;-69
2023/03/28 06:58:53;;;;;;;11.95;1.70;;;5.60;99.90;;;;;;5160352;27;20063;-69
2023/03/28 07:01:19;;;;;;;12.43;1.90;;;5.80;99.90;;;;;;5142076;27;20042;-69
2023/03/28 07:03:44;;;;;;;12.90;2.28;;;5.80;99.90;;;;;;5160256;27;20038;-69
2023/03/28 07:06:10;;;;;;;20.27;2.47;;;5.80;99.90;;;;;;5160212;27;20042;-69
2023/03/28 07:08:37;;;;;;;10.65;2.17;;;5.80;99.90;;;;;;5141534;27;20340;-69
2023/03/28 07:11:03;;;;;;;16.52;2.13;;;5.80;99.90;;;;;;5160097;27;20050;-69
2023/03/28 07:13:28;;;;;;;11.77;1.85;;;5.90;99.90;;;;;;5159734;27;20435;-69
2023/03/28 07:16:04;;;;;;;14.48;2.13;;;5.90;99.90;;;;;;5159943;27;20039;-69
2023/03/28 07:18:31;;;;;;;10.85;2.38;;;5.90;99.90;;;;;;5160040;27;20162;-69
2023/03/28 07:20:56;;;;;;;8.65;1.90;;;5.60;99.90;;;;;;5159935;27;20409;-69
2023/03/28 07:23:22;;;;;;;18.98;2.45;;;5.60;99.90;;;;;;5159466;27;20031;-67
2023/03/28 07:25:48;;;;;;;10.77;1.88;;;5.70;99.90;;;;;;5159795;27;20038;-66
2023/03/28 07:28:13;;;;;;;10.95;1.75;;;5.70;99.90;;;;;;5159707;27;20099;-67
2023/03/28 07:30:39;;;;;;;11.23;1.80;;;5.80;99.90;;;;;;5159723;27;20364;-66
2023/03/28 07:33:05;;;;;;;9.15;1.67;;;6.00;99.90;;;;;;5141284;27;20416;-66
2023/03/28 07:35:31;;;;;;;12.52;2.08;;;6.10;99.90;;;;;;5159516;27;20095;-66
2023/03/28 07:37:57;;;;;;;14.27;2.40;;;6.20;99.90;;;;;;5159298;27;20394;-66
2023/03/28 07:40:23;;;;;;;8.82;1.73;;;6.20;99.90;;;;;;5159258;27;20034;-66
2023/03/28 07:42:48;;;;;;;10.05;1.70;;;6.30;99.90;;;;;;5159513;27;20133;-66
2023/03/28 07:45:14;;;;;;;15.57;2.28;;;6.40;99.90;;;;;;5159477;27;20046;-65
2023/03/28 07:47:41;;;;;;;12.27;2.85;;;6.30;99.90;;;;;;5159400;27;20091;-67
2023/03/28 07:50:07;;;;;;;12.70;1.95;;;6.30;99.90;;;;;;5159040;27;20043;-67
2023/03/28 07:52:33;;;;;;;16.83;2.10;;;6.40;99.90;;;;;;5159329;27;20383;-67
2023/03/28 07:54:58;;;;;;;11.10;1.42;;;6.40;99.90;;;;;;5158043;27;20125;-67
2023/03/28 07:57:24;;;;;;;12.05;1.90;;;6.40;99.90;;;;;;5159174;27;20053;-67
2023/03/28 07:59:50;;;;;;;8.90;1.67;;;6.50;99.90;;;;;;5140808;27;20126;-66
2023/03/28 08:02:16;;;;;;;8.50;1.83;;;6.40;99.90;;;;;;5140549;27;20082;-67
2023/03/28 08:04:41;;;;;;;10.23;2.03;;;6.30;99.90;;;;;;5159116;27;20037;-67
2023/03/28 08:07:08;;;;;;;11.95;1.45;;;6.40;99.90;;;;;;5159281;27;20053;-67
2023/03/28 08:09:34;;;;;;;13.23;1.50;;;6.40;99.90;;;;;;5158977;27;20046;-67
2023/03/28 08:12:00;;;;;;;9.18;1.10;;;6.50;99.90;;;;;;5158946;27;20042;-67
2023/03/28 08:14:26;;;;;;;8.82;1.30;;;6.60;99.90;;;;;;5158858;27;20369;-66
2023/03/28 08:16:52;;;;;;;10.50;1.30;;;6.70;99.90;;;;;;5159006;27;20041;-66
2023/03/28 08:19:18;;;;;;;6.55;0.93;;;6.60;99.90;;;;;;5158439;27;20035;-66
2023/03/28 08:21:44;;;;;;;11.73;1.17;;;6.60;99.90;;;;;;5158465;27;20046;-67
2023/03/28 08:24:10;;;;;;;9.70;1.00;;;6.80;99.90;;;;;;5158382;27;20042;-68
2023/03/28 08:26:36;;;;;;;10.57;0.90;;;7.10;99.90;;;;;;5158450;27;20475;-66
2023/03/28 08:29:03;;;;;;;7.45;1.35;;;7.20;99.90;;;;;;5158597;27;20057;-66
2023/03/28 08:31:29;;;;;;;11.85;0.98;;;7.50;99.90;;;;;;5158329;27;20095;-67
2023/03/28 08:33:56;;;;;;;10.50;0.90;;;7.30;99.90;;;;;;5140431;27;20078;-66
2023/03/28 08:36:24;;;;;;;6.63;0.65;;;7.20;99.90;;;;;;5158214;27;20042;-66
2023/03/28 08:38:52;;;;;;;6.65;1.17;;;7.20;99.90;;;;;;5140357;27;20030;-66
2023/03/28 08:41:51;;;;;;;4.55;0.60;;;7.10;99.90;;;;;;5123293;27;20047;-67
2023/03/28 08:44:46;;;;;;;4.85;1.00;;;7.20;99.90;;;;;;5158268;27;20045;-67
2023/03/28 08:47:17;;;;;;;7.30;1.00;;;7.30;99.90;;;;;;5139941;27;20118;-67
2023/03/28 08:50:12;;;;;;;13.30;1.45;;;7.20;99.90;;;;;;5158533;27;20046;-67
2023/03/28 08:52:40;;;;;;;7.68;0.55;;;7.20;99.90;;;;;;5158461;27;20038;-66
2023/03/28 08:55:29;;;;;;;8.38;1.08;;;7.30;99.90;;;;;;5157659;27;20054;-66
2023/03/28 08:57:56;;;;;;;6.75;0.77;;;7.20;99.90;;;;;;5158399;27;20035;-67
2023/03/28 09:00:27;;;;;;;11.40;1.15;;;7.10;99.90;;;;;;5158398;27;20060;-67
2023/03/28 09:02:54;;;;;;;6.57;0.60;;;7.10;99.90;;;;;;5140029;27;20109;-67
2023/03/28 09:05:55;;;;;;;7.35;0.98;;;6.90;99.90;;;;;;5158337;27;20070;-67
2023/03/28 09:08:27;;;;;;;7.30;0.98;;;6.90;99.90;;;;;;5162109;27;20050;-66
2023/03/28 09:11:11;;;;;;;7.32;1.00;;;6.90;99.90;;;;;;5162461;27;20309;-67
2023/03/28 09:13:56;;;;;;;12.40;1.40;;;7.00;99.90;;;;;;5162558;27;20043;-67
2023/03/28 09:16:50;;;;;;;7.85;1.00;;;7.30;99.90;;;;;;5162000;27;20446;-67
2023/03/28 09:19:39;;;;;;;4.43;0.70;;;7.20;99.90;;;;;;5143996;27;20050;-68
2023/03/28 09:22:35;;;;;;;9.02;0.70;;;7.00;99.90;;;;;;5162303;27;20043;-67
2023/03/28 09:25:29;;;;;;;4.38;0.60;;;7.30;99.90;;;;;;5159930;27;20057;-67
2023/03/28 09:28:16;;;;;;;7.90;0.70;;;7.50;99.90;;;;;;5143913;27;20077;-67
2023/03/28 09:30:46;;;;;;;8.57;0.85;;;7.50;99.90;;;;;;5162149;27;20095;-67
2023/03/28 09:33:37;;;;;;;4.45;0.52;;;7.60;99.90;;;;;;5143410;27;20102;-67
2023/03/28 09:36:11;;;;;;;4.85;0.63;;;7.40;99.90;;;;;;5150059;27;20050;-67
2023/03/28 09:38:53;;;;;;;4.35;0.50;;;7.40;99.90;;;;;;5162033;27;20094;-69
2023/03/28 09:41:25;;;;;;;5.55;0.80;;;7.50;99.90;;;;;;5161932;27;20041;-67
2023/03/28 09:44:02;;;;;;;7.63;1.52;;;7.50;99.90;;;;;;5161917;27;20054;-67
2023/03/28 09:46:44;;;;;;;4.60;0.90;;;7.40;99.90;;;;;;5161855;27;20407;-67
2023/03/28 09:49:24;;;;;;;4.50;0.57;;;7.70;99.90;;;;;;5161518;27;20035;-67
2023/03/28 09:51:53;;;;;;;6.75;0.70;;;7.90;99.90;;;;;;5161473;27;20114;-67
2023/03/28 09:54:29;;;;;;;5.80;0.73;;;7.90;99.90;;;;;;5152331;27;20119;-72
2023/03/28 09:57:02;;;;;;;;;;;7.80;99.90;;;;;;5152629;27;20463;-67
2023/03/28 09:59:33;;;;;;;2.90;0.80;;;7.60;99.90;;;;;;5145047;27;20200;-71
2023/03/28 10:02:01;;;;;;;6.65;1.08;;;7.90;99.90;;;;;;5151201;27;20110;-68
2023/03/28 10:04:27;;;;;;;3.28;0.82;;;8.20;99.90;;;;;;5144435;27;20365;-69
2023/03/28 10:07:15;;;;;;;4.72;0.88;;;8.40;99.90;;;;;;5138525;27;20122;-68
2023/03/28 10:09:57;;;;;;;8.50;1.42;;;8.40;99.90;;;;;;5140621;27;20123;-69
2023/03/28 10:12:30;;;;;;;3.78;0.88;;;8.60;99.90;;;;;;5140573;27;20112;-69
2023/03/28 10:14:56;;;;;;;5.20;0.68;;;8.80;99.90;;;;;;5140487;27;20366;-68
2023/03/28 10:17:36;;;;;;;6.03;0.93;;;8.80;99.90;;;;;;5140133;27;20044;-68
2023/03/28 10:20:04;;;;;;;6.25;1.27;;;8.90;99.90;;;;;;5140159;27;20046;-66
2023/03/28 10:22:33;;;;;;;6.32;0.90;;;9.00;99.90;;;;;;5140349;27;20096;-66
2023/03/28 10:25:02;;;;;;;5.78;1.08;;;9.00;99.90;;;;;;5139620;27;20110;-66
2023/03/28 10:27:31;;;;;;;3.92;0.73;;;8.80;99.90;;;;;;5140302;27;20054;-66
2023/03/28 10:30:06;;;;;;;6.72;1.08;;;8.40;99.90;;;;;;5122012;27;20450;-66
2023/03/28 10:32:32;;;;;;;6.63;1.25;;;8.50;99.90;;;;;;5140149;27;20102;-66
2023/03/28 10:35:06;;;;;;;5.47;0.82;;;8.60;99.90;;;;;;5139709;27;20118;-66
2023/03/28 10:37:33;;;;;;;5.53;0.90;;;8.80;99.90;;;;;;5140116;27;20327;-66
2023/03/28 10:40:06;;;;;;;7.30;0.90;;;8.50;99.90;;;;;;5140066;27;20046;-66
2023/03/28 10:42:45;;;;;;;4.75;1.05;;;8.50;99.90;;;;;;5139871;27;20436;-68
2023/03/28 10:45:29;;;;;;;4.20;0.77;;;8.50;99.90;;;;;;5138414;27;20046;-71
2023/03/28 10:48:01;;;;;;;5.85;0.90;;;8.80;99.90;;;;;;5139891;27;20046;-67
2023/03/28 10:50:39;;;;;;;7.65;1.13;;;9.00;99.90;;;;;;5139869;27;20074;-69
2023/03/28 10:53:41;;;;;;;4.32;0.75;;;9.40;99.90;;;;;;5139811;27;20062;-67
2023/03/28 10:56:26;;;;;;;4.65;0.95;;;9.80;99.90;;;;;;5139286;27;20063;-68
2023/03/28 10:59:23;;;;;;;4.65;1.02;;;10.00;99.90;;;;;;5139378;27;20336;-67
2023/03/28 11:02:09;;;;;;;2.72;0.70;;;10.70;99.90;;;;;;5139352;27;20425;-71
2023/03/28 11:04:44;;;;;;;6.20;1.00;;;10.60;99.90;;;;;;5139570;27;20126;-67
2023/03/28 11:07:17;;;;;;;4.97;1.10;;;10.50;99.90;;;;;;5139218;27;20043;-67
2023/03/28 11:09:50;;;;;;;9.15;1.80;;;10.20;99.90;;;;;;5155373;27;20047;-67
2023/03/28 11:12:38;;;;;;;5.68;1.20;;;10.20;99.90;;;;;;5139447;27;20035;-67
2023/03/28 11:15:17;;;;;;;4.28;0.88;;;10.00;99.90;;;;;;5139246;27;20041;-67
2023/03/28 11:18:14;;;;;;;6.35;0.90;;;9.90;99.90;;;;;;5121804;27;20039;-67
2023/03/28 11:20:52;;;;;;;3.58;0.82;;;9.90;99.90;;;;;;5139332;27;20043;-67
2023/03/28 11:23:39;;;;;;;3.20;1.00;;;9.70;99.90;;;;;;5138556;27;20035;-67
2023/03/28 11:26:32;;;;;;;6.70;1.33;;;9.90;99.90;;;;;;5138819;27;20042;-68
2023/03/28 11:29:20;;;;;;;5.88;1.20;;;10.00;99.90;;;;;;5134325;27;20047;-74
2023/03/28 11:32:02;;;;;;;6.43;1.40;;;10.00;99.90;;;;;;5139089;27;20039;-68
2023/03/28 11:34:36;;;;;;;5.68;0.90;;;9.90;99.90;;;;;;5154890;27;20127;-68
2023/03/28 11:37:08;;;;;;;4.40;1.33;;;10.30;99.90;;;;;;5138899;27;20038;-68
2023/03/28 11:40:08;;;;;;;5.18;1.30;;;10.30;99.90;;;;;;5103514;27;20045;-70
2023/03/28 11:42:42;;;;;;;4.75;1.23;;;10.10;99.90;;;;;;5138498;27;20047;-73
2023/03/28 11:45:31;;;;;;;8.50;1.77;;;10.30;99.90;;;;;;5120735;27;20039;-75
2023/03/28 11:48:04;;;;;;;3.60;1.20;;;10.20;99.90;;;;;;5103573;27;20039;-75
2023/03/28 11:50:45;;;;;;;5.72;1.63;;;10.40;99.90;;;;;;5138460;27;20039;-75
2023/03/28 11:53:23;;;;;;;5.88;1.58;;;10.60;99.90;;;;;;5154706;27;20078;-76
2023/03/28 11:55:58;;;;;;;6.60;1.65;;;10.70;99.90;;;;;;5119931;27;20440;-75
2023/03/28 11:58:27;;;;;;;5.40;2.05;;;10.60;99.90;;;;;;5103168;27;20046;-76
2023/03/28 12:00:58;;;;;;;5.25;1.77;;;10.40;99.90;;;;;;5119960;27;20095;-77
2023/03/28 12:03:37;;;;;;;6.90;1.60;;;10.40;99.90;;;;;;5102995;27;20043;-77
2023/03/28 12:06:05;;;;;;;5.80;1.58;;;10.40;99.90;;;;;;5103026;27;20035;-76
2023/03/28 12:08:44;;;;;;;11.00;1.98;;;10.60;99.90;;;;;;5102887;27;20039;-77
2023/03/28 12:11:22;;;;;;;4.65;1.42;;;10.80;99.90;;;;;;5102878;27;20043;-77
2023/03/28 12:13:57;;;;;;;11.23;1.63;;;10.60;99.90;;;;;;5103231;27;20336;-77
2023/03/28 12:16:30;;;;;;;6.38;1.13;;;10.90;99.90;;;;;;5119786;27;20088;-75
2023/03/28 12:19:00;;;;;;;7.47;1.67;;;11.00;99.90;;;;;;5120225;27;20035;-76
2023/03/28 12:21:44;;;;;;;8.32;1.65;;;11.30;99.90;;;;;;5137953;27;20042;-75
2023/03/28 12:24:28;;;;;;;12.45;2.35;;;11.20;99.90;;;;;;5102320;27;20438;-76
2023/03/28 12:27:05;;;;;;;9.63;1.83;;;11.30;99.90;;;;;;5138141;27;20031;-75
2023/03/28 12:30:06;;;;;;;9.18;2.22;;;11.70;99.90;;;;;;5119603;27;20099;-76
2023/03/28 12:32:39;;;;;;;8.23;1.73;;;11.60;99.90;;;;;;5137964;27;20039;-76
2023/03/28 12:35:20;;;;;;;5.82;1.73;;;11.70;99.90;;;;;;5119845;27;20127;-76
2023/03/28 12:38:14;;;;;;;4.97;1.63;;;11.70;99.90;;;;;;5119622;28;20092;-75
2023/03/28 12:41:13;;;;;;;4.25;1.50;;;11.70;99.90;;;;;;5137930;27;20042;-76
2023/03/28 12:43:57;;;;;;;7.10;1.90;;;11.90;99.90;;;;;;5058850;27;20043;-76
2023/03/28 12:46:50;;;;;;;7.55;1.73;;;12.00;99.90;;;;;;5119499;28;20043;-76
2023/03/28 12:49:15;;;;;;;7.60;1.80;;;12.40;99.90;;;;;;5153898;27;20054;-75
2023/03/28 12:51:55;;;;;;;5.55;1.50;;;12.50;99.90;;;;;;5137815;28;20043;-76
2023/03/28 12:54:24;;;;;;;6.38;1.50;;;12.60;99.90;;;;;;5137130;28;20039;-76
2023/03/28 12:57:08;;;;;;;6.47;1.45;;;12.50;99.90;;;;;;5119317;28;20062;-73
2023/03/28 12:59:40;;;;;;;5.38;1.55;;;12.10;99.90;;;;;;5137720;28;20043;-74
2023/03/28 13:02:27;;;;;;;5.22;1.48;;;12.40;99.90;;;;;;5119403;28;20074;-74
2023/03/28 13:04:57;;;;;;;10.50;1.73;;;12.50;99.90;;;;;;5119181;28;20077;-75
2023/03/28 13:07:45;;;;;;;6.85;1.73;;;12.30;99.90;;;;;;5137658;28;20043;-74
2023/03/28 13:10:34;;;;;;;9.65;1.95;;;12.30;99.90;;;;;;5102754;28;20051;-79
2023/03/28 13:13:12;;;;;;;7.93;1.65;;;11.80;99.90;;;;;;5119531;28;20043;-78
2023/03/28 13:16:02;;;;;;;8.13;1.58;;;11.00;99.90;;;;;;5119352;28;20054;-77
2023/03/28 13:18:30;;;;;;;5.30;1.67;;;11.00;99.90;;;;;;5119726;28;20423;-78